Time;durP1;ratioP1;P1;durP2;ratioP2;P2;SDS_P1;SDS_P2;PMS_P1;PMS_P2;Temp;Humidity;BMP_temperature;BMP_pressure;BME280_temperature;BME280_humidity;BME280_pressure;Samples;Min_cycle;Max_cycle;Signal;HPM_P1;HPM_P2
2023/09/10 00:02:19;;;;;;;3.40;2.20;;;;;;;16.68;53.53;97343.28;5065614;28;20209;-82
2023/09/10 00:04:47;;;;;;;6.30;2.30;;;;;;;16.82;53.26;97355.47;5067635;28;20198;-81
2023/09/10 00:07:14;;;;;;;4.93;2.40;;;;;;;16.63;53.53;97331.47;5072145;28;20231;-81
2023/09/10 00:09:41;;;;;;;4.77;2.07;;;;;;;16.51;54.26;97327.00;5068268;28;20700;-82
2023/09/10 00:12:09;;;;;;;4.73;2.60;;;;;;;16.83;53.70;97354.53;5068886;28;20201;-77
2023/09/10 00:14:36;;;;;;;3.23;2.53;;;;;;;16.43;54.75;97369.31;5067182;28;20270;-82
2023/09/10 00:17:10;;;;;;;4.13;2.40;;;;;;;16.47;55.30;97351.63;5067168;28;20225;-80
2023/09/10 00:19:37;;;;;;;3.80;2.60;;;;;;;16.54;55.84;97369.50;5064848;28;20193;-81
2023/09/10 00:22:04;;;;;;;3.20;2.20;;;;;;;16.21;56.73;97355.94;5048400;28;20829;-78
2023/09/10 00:24:32;;;;;;;5.70;2.73;;;;;;;16.18;57.37;97359.56;5065021;28;20189;-77
2023/09/10 00:26:59;;;;;;;5.47;3.10;;;;;;;16.56;56.51;97351.09;5064875;28;20202;-79
2023/09/10 00:29:27;;;;;;;5.10;2.20;;;;;;;16.79;55.96;97332.13;5066366;28;20314;-80
2023/09/10 00:31:54;;;;;;;2.93;2.30;;;;;;;16.87;55.92;97363.84;5065873;28;20224;-79
2023/09/10 00:34:22;;;;;;;4.83;2.13;;;;;;;16.84;55.46;97324.81;5048555;28;20658;-80
2023/09/10 00:36:49;;;;;;;3.93;2.10;;;;;;;16.80;56.45;97365.19;5064643;28;20224;-79
2023/09/10 00:39:18;;;;;;;4.73;2.50;;;;;;;16.50;57.38;97348.88;5048096;28;20630;-80
2023/09/10 00:41:45;;;;;;;6.83;2.33;;;;;;;16.48;57.83;97340.25;5065935;28;20190;-82
2023/09/10 00:44:13;;;;;;;5.60;2.40;;;;;;;16.59;56.87;97345.69;5065247;28;20221;-82
2023/09/10 00:46:43;;;;;;;3.60;2.20;;;;;;;16.39;57.00;97322.53;5066651;28;20686;-83
2023/09/10 00:49:11;;;;;;;5.73;2.40;;;;;;;15.93;57.77;97350.75;5066960;28;20221;-78
2023/09/10 00:51:39;;;;;;;4.27;2.27;;;;;;;15.62;58.56;97330.88;5051345;28;20193;-79
2023/09/10 00:54:07;;;;;;;4.63;2.77;;;;;;;15.79;58.32;97340.31;5066882;28;20198;-78
2023/09/10 00:56:35;;;;;;;6.83;2.17;;;;;;;15.75;58.33;97352.72;5048991;28;20268;-79
2023/09/10 00:59:03;;;;;;;4.17;2.33;;;;;;;15.46;57.70;97344.03;5048207;28;20196;-78
2023/09/10 01:01:30;;;;;;;4.20;2.40;;;;;;;15.69;58.42;97354.84;5048011;28;20613;-77
2023/09/10 01:04:01;;;;;;;3.03;2.10;;;;;;;15.77;58.46;97360.44;5066009;28;20197;-80
2023/09/10 01:06:29;;;;;;;3.13;2.10;;;;;;;15.76;57.59;97353.56;5048067;28;20206;-83
2023/09/10 01:08:58;;;;;;;3.83;2.27;;;;;;;15.64;57.58;97352.50;5048859;28;20591;-83
2023/09/10 01:11:43;;;;;;;7.33;3.03;;;;;;;15.75;58.28;97354.47;5065010;28;20212;-83
2023/09/10 01:14:17;;;;;;;5.67;3.63;;;;;;;15.54;58.17;97338.34;5065012;28;20646;-79
2023/09/10 01:16:44;;;;;;;5.87;3.67;;;;;;;15.43;59.45;97361.66;5048304;28;20244;-80
2023/09/10 01:19:51;;;;;;;6.77;3.53;;;;;;;15.31;60.03;97359.75;5064552;28;20188;-79
2023/09/10 01:22:30;;;;;;;5.10;3.20;;;;;;;15.19;59.52;97343.03;5046354;28;20205;-79
2023/09/10 01:25:00;;;;;;;4.67;3.00;;;;;;;15.33;59.56;97363.13;5064957;28;20200;-78
2023/09/10 01:27:30;;;;;;;3.77;2.50;;;;;;;15.62;59.09;97343.94;5065513;28;20174;-79
2023/09/10 01:29:57;;;;;;;4.20;2.57;;;;;;;15.93;57.81;97329.88;5068632;28;20239;-79
2023/09/10 01:32:38;;;;;;;4.17;2.50;;;;;;;15.82;58.04;97359.25;5068101;28;20200;-78
2023/09/10 01:35:25;;;;;;;4.73;2.67;;;;;;;15.91;57.17;97347.41;5068407;28;20679;-82
2023/09/10 01:38:09;;;;;;;5.23;2.37;;;;;;;15.70;56.08;97323.44;5067863;28;20221;-80
2023/09/10 01:40:47;;;;;;;4.23;2.30;;;;;;;16.00;56.32;97342.44;5067862;28;20268;-78
2023/09/10 01:43:14;;;;;;;3.90;2.60;;;;;;;15.87;55.86;97327.59;5054241;28;20285;-77
2023/09/10 01:45:43;;;;;;;7.97;3.03;;;;;;;15.77;55.54;97319.50;5089211;28;20246;-77
2023/09/10 01:48:10;;;;;;;3.80;2.30;;;;;;;15.71;55.56;97355.59;5089159;28;20200;-78
2023/09/10 01:50:38;;;;;;;4.37;2.03;;;;;;;15.50;56.21;97334.25;5054317;28;20211;-80
2023/09/10 01:53:09;;;;;;;3.40;2.40;;;;;;;15.44;55.68;97311.13;5054703;28;20257;-77
2023/09/10 01:55:37;;;;;;;3.77;2.00;;;;;;;16.00;54.99;97346.81;5089368;28;20192;-80
2023/09/10 01:58:04;;;;;;;3.97;2.13;;;;;;;15.86;54.94;97350.28;5038040;28;20788;-83
2023/09/10 02:00:34;;;;;;;4.97;2.33;;;;;;;16.02;53.89;97335.34;5055156;28;20197;-79
2023/09/10 02:03:03;;;;;;;3.47;2.07;;;;;;;16.25;53.39;97347.81;5088641;28;20221;-81
2023/09/10 02:05:31;;;;;;;2.97;1.97;;;;;;;16.07;54.01;97343.72;5054322;28;20181;-81
2023/09/10 02:07:59;;;;;;;4.13;2.23;;;;;;;16.08;54.04;97340.19;5070534;28;20200;-78
2023/09/10 02:10:28;;;;;;;8.83;2.40;;;;;;;15.64;54.37;97295.06;5088843;28;20279;-81
2023/09/10 02:12:56;;;;;;;3.00;2.10;;;;;;;15.81;54.23;97341.03;5071166;28;20189;-80
2023/09/10 02:15:24;;;;;;;3.87;2.17;;;;;;;15.94;53.85;97336.75;5070322;28;20211;-78
2023/09/10 02:17:56;;;;;;;4.20;2.60;;;;;;;16.23;53.43;97341.00;5070855;28;20228;-80
2023/09/10 02:20:23;;;;;;;3.50;2.27;;;;;;;16.22;53.28;97347.97;5088499;28;20198;-77
2023/09/10 02:22:50;;;;;;;4.77;3.10;;;;;;;16.24;53.61;97346.09;5088673;28;20217;-79
2023/09/10 02:25:17;;;;;;;3.93;2.23;;;;;;;16.47;53.06;97341.19;5088520;28;20195;-78
2023/09/10 02:27:45;;;;;;;4.23;2.40;;;;;;;16.55;53.48;97345.00;5089035;28;20200;-79
2023/09/10 02:30:12;;;;;;;4.50;2.30;;;;;;;16.41;52.96;97347.66;5070213;28;20300;-79
2023/09/10 02:32:39;;;;;;;5.40;2.10;;;;;;;16.32;53.53;97337.81;5088014;28;20194;-76
2023/09/10 02:35:08;;;;;;;2.97;1.90;;;;;;;16.46;53.60;97318.59;5070433;28;20252;-77
2023/09/10 02:37:36;;;;;;;4.87;2.20;;;;;;;16.35;53.67;97347.19;5088339;28;20327;-78
2023/09/10 02:40:09;;;;;;;3.37;2.30;;;;;;;16.12;53.99;97335.59;5069127;28;20224;-81
2023/09/10 02:42:37;;;;;;;5.07;1.90;;;;;;;15.81;55.71;97361.94;5069851;28;20205;-78
2023/09/10 02:45:05;;;;;;;4.93;2.07;;;;;;;15.85;55.19;97340.75;5066232;28;20619;-78
2023/09/10 02:47:33;;;;;;;5.00;2.23;;;;;;;16.01;54.34;97351.94;5068166;28;20216;-79
2023/09/10 02:50:00;;;;;;;2.20;1.90;;;;;;;15.99;54.21;97329.47;5066337;28;20262;-79
2023/09/10 02:52:30;;;;;;;2.77;2.00;;;;;;;16.11;54.34;97321.72;5067138;28;20193;-82
2023/09/10 02:54:58;;;;;;;3.40;1.83;;;;;;;16.27;54.34;97355.53;5066662;28;20188;-79
2023/09/10 02:57:25;;;;;;;4.90;2.00;;;;;;;16.34;54.10;97356.00;5066342;28;20229;-79
2023/09/10 02:59:53;;;;;;;5.40;2.87;;;;;;;15.93;54.76;97346.34;5066412;28;20624;-78
2023/09/10 03:02:22;;;;;;;5.33;2.50;;;;;;;15.96;55.01;97351.41;5066071;28;20829;-80
2023/09/10 03:04:51;;;;;;;5.27;2.37;;;;;;;15.78;55.41;97338.63;5066867;28;20190;-79
2023/09/10 03:07:19;;;;;;;5.90;2.60;;;;;;;15.83;55.17;97350.47;5049946;28;20287;-78
2023/09/10 03:09:50;;;;;;;3.33;2.40;;;;;;;15.93;55.31;97351.56;5066572;28;20205;-79
2023/09/10 03:12:24;;;;;;;5.67;2.43;;;;;;;15.90;54.91;97340.47;5049971;28;20246;-81
2023/09/10 03:14:54;;;;;;;4.33;2.50;;;;;;;15.84;55.69;97346.94;5050252;28;20754;-82
2023/09/10 03:17:25;;;;;;;3.17;2.27;;;;;;;15.84;55.20;97352.16;5066527;28;20255;-82
2023/09/10 03:19:53;;;;;;;6.17;2.93;;;;;;;15.91;55.16;97319.47;5050171;28;20208;-81
2023/09/10 03:22:21;;;;;;;5.47;3.43;;;;;;;16.19;54.83;97344.72;5066529;28;20189;-82
2023/09/10 03:24:49;;;;;;;6.07;2.63;;;;;;;16.18;54.91;97329.97;5065886;28;20186;-81
2023/09/10 03:27:17;;;;;;;8.10;2.73;;;;;;;16.07;54.83;97311.53;5066271;28;20713;-80
2023/09/10 03:29:45;;;;;;;3.43;2.50;;;;;;;15.79;56.36;97322.88;5064294;28;20209;-83
2023/09/10 03:32:13;;;;;;;5.97;2.77;;;;;;;15.79;56.14;97328.09;5061848;28;20274;-78
2023/09/10 03:34:43;;;;;;;2.87;2.10;;;;;;;15.66;57.16;97323.72;5046477;28;20285;-83
2023/09/10 03:37:12;;;;;;;4.73;2.50;;;;;;;15.60;57.00;97322.31;5046526;28;20226;-81
2023/09/10 03:39:42;;;;;;;4.47;2.40;;;;;;;15.44;57.98;97352.88;5030048;28;20237;-80
2023/09/10 03:42:50;;;;;;;6.57;2.63;;;;;;;15.57;57.51;97350.38;5046662;28;20540;-81
2023/09/10 03:46:12;;;;;;;5.27;2.63;;;;;;;15.74;57.26;97361.50;5044653;28;20197;-81
2023/09/10 03:48:53;;;;;;;5.37;2.53;;;;;;;15.83;56.83;97362.69;5028429;28;20198;-78
2023/09/10 03:51:21;;;;;;;5.77;2.90;;;;;;;15.84;56.26;97354.78;5046617;28;20591;-80
2023/09/10 03:53:49;;;;;;;7.70;3.10;;;;;;;15.85;56.14;97347.75;5045360;28;20191;-79
2023/09/10 03:56:17;;;;;;;4.40;2.70;;;;;;;15.73;56.56;97344.13;5047643;28;20221;-79
2023/09/10 03:58:45;;;;;;;3.87;2.70;;;;;;;15.67;57.17;97352.34;5065196;28;20228;-80
2023/09/10 04:01:12;;;;;;;5.93;2.77;;;;;;;15.86;56.86;97363.34;5048946;28;20569;-79
2023/09/10 04:03:40;;;;;;;4.40;2.57;;;;;;;15.84;56.96;97357.38;5065206;28;20182;-79
2023/09/10 04:06:11;;;;;;;3.70;2.60;;;;;;;15.81;56.72;97359.31;5049465;28;20204;-79
2023/09/10 04:08:38;;;;;;;4.70;3.10;;;;;;;15.93;56.60;97356.78;5048208;28;20689;-78
2023/09/10 04:11:09;;;;;;;5.37;2.60;;;;;;;16.18;56.25;97367.41;5048980;28;20198;-79
2023/09/10 04:13:39;;;;;;;6.87;3.17;;;;;;;16.17;56.27;97365.75;5065386;28;20220;-79
2023/09/10 04:16:10;;;;;;;8.33;3.03;;;;;;;16.09;55.93;97356.69;5067240;28;20201;-79
2023/09/10 04:18:40;;;;;;;7.20;2.97;;;;;;;15.56;57.61;97361.78;5066559;28;20277;-79
2023/09/10 04:21:12;;;;;;;4.27;2.50;;;;;;;15.44;58.11;97345.06;5069554;28;20193;-79
2023/09/10 04:23:39;;;;;;;4.20;2.53;;;;;;;14.97;59.92;97354.81;5068297;28;20680;-80
2023/09/10 04:26:07;;;;;;;3.60;2.73;;;;;;;14.90;60.08;97367.38;5068868;28;20587;-78
2023/09/10 04:28:37;;;;;;;5.00;2.70;;;;;;;15.22;59.88;97363.75;5050160;28;20224;-81
2023/09/10 04:31:04;;;;;;;4.50;3.10;;;;;;;15.22;59.33;97340.25;5048899;28;20190;-79
2023/09/10 04:33:34;;;;;;;5.60;2.90;;;;;;;14.90;60.04;97362.16;5048855;28;20197;-80
2023/09/10 04:36:02;;;;;;;7.97;3.27;;;;;;;15.17;60.44;97371.00;5048970;28;20197;-77
2023/09/10 04:38:30;;;;;;;5.37;3.10;;;;;;;15.15;60.46;97358.97;5065213;28;20221;-81
2023/09/10 04:40:58;;;;;;;4.70;2.33;;;;;;;15.63;59.38;97374.34;5065353;28;20193;-77
2023/09/10 04:43:25;;;;;;;5.87;3.37;;;;;;;15.60;59.02;97371.91;5048120;28;20747;-76
2023/09/10 04:45:52;;;;;;;6.60;2.60;;;;;;;15.83;58.36;97383.56;5060003;28;20684;-75
2023/09/10 04:48:33;;;;;;;5.80;3.23;;;;;;;15.73;58.19;97358.97;5032187;28;20217;-75
2023/09/10 04:51:14;;;;;;;4.93;2.90;;;;;;;15.87;57.98;97359.78;5063094;28;20193;-77
2023/09/10 04:53:58;;;;;;;4.13;3.07;;;;;;;16.09;57.84;97370.59;5046777;28;20198;-77
2023/09/10 04:56:39;;;;;;;5.87;3.70;;;;;;;16.42;57.21;97377.25;5046992;28;20193;-76
2023/09/10 04:59:21;;;;;;;5.13;2.70;;;;;;;15.72;58.23;97321.59;5063777;28;20251;-76
2023/09/10 05:02:04;;;;;;;5.50;2.77;;;;;;;16.04;57.74;97354.38;5064376;28;20217;-75
2023/09/10 05:04:45;;;;;;;5.63;2.53;;;;;;;16.38;57.93;97373.16;5051525;28;20609;-78
2023/09/10 05:07:26;;;;;;;5.93;2.70;;;;;;;16.15;58.10;97372.84;5067209;28;20214;-75
2023/09/10 05:10:10;;;;;;;4.43;2.73;;;;;;;16.51;57.46;97371.44;5053247;28;20616;-77
2023/09/10 05:12:54;;;;;;;5.93;2.90;;;;;;;17.00;56.22;97389.09;5052663;28;20852;-79
2023/09/10 05:15:35;;;;;;;5.07;3.00;;;;;;;16.79;56.69;97380.06;5069543;28;20181;-76
2023/09/10 05:18:16;;;;;;;5.37;2.90;;;;;;;16.86;56.82;97372.63;5052383;28;20221;-77
2023/09/10 05:20:57;;;;;;;3.93;2.60;;;;;;;16.95;56.59;97357.19;5067118;28;20699;-77
2023/09/10 05:23:38;;;;;;;4.43;2.67;;;;;;;17.22;55.65;97356.28;5067185;28;20204;-78
2023/09/10 05:26:19;;;;;;;3.70;2.40;;;;;;;17.78;54.60;97377.69;5051984;28;20254;-77
2023/09/10 05:29:01;;;;;;;5.57;2.40;;;;;;;17.94;54.27;97380.09;5066839;28;20302;-77
2023/09/10 05:31:43;;;;;;;3.93;2.20;;;;;;;17.81;54.53;97387.97;5067599;28;20248;-77
2023/09/10 05:34:24;;;;;;;7.07;2.97;;;;;;;17.82;54.81;97375.72;5049662;28;20199;-76
2023/09/10 05:37:05;;;;;;;4.43;2.30;;;;;;;17.87;54.38;97371.81;5068082;28;20187;-76
2023/09/10 05:39:46;;;;;;;4.27;2.80;;;;;;;18.15;53.72;97380.38;5066470;28;20187;-75
2023/09/10 05:42:27;;;;;;;3.73;2.60;;;;;;;18.53;52.67;97368.00;5066845;28;20198;-76
2023/09/10 05:45:10;;;;;;;4.90;2.50;;;;;;;18.79;52.38;97380.09;5035565;28;20653;-78
2023/09/10 05:47:51;;;;;;;6.50;2.13;;;;;;;18.88;52.00;97386.44;5066298;28;20290;-76
2023/09/10 05:50:32;;;;;;;10.50;2.93;;;;;;;19.14;51.31;97361.75;5050021;28;20206;-77
2023/09/10 05:53:13;;;;;;;3.10;2.10;;;;;;;19.48;50.32;97385.38;5067144;28;20197;-77
2023/09/10 05:55:56;;;;;;;6.93;3.10;;;;;;;19.44;50.62;97386.56;5066764;28;20546;-77
2023/09/10 05:58:36;;;;;;;4.83;2.50;;;;;;;19.40;50.60;97364.09;5066763;28;20255;-76
2023/09/10 06:01:17;;;;;;;4.60;2.27;;;;;;;19.58;50.15;97340.03;5068331;28;20275;-79
2023/09/10 06:03:59;;;;;;;4.17;2.30;;;;;;;19.94;48.81;97387.94;5051631;28;20275;-79
2023/09/10 06:06:40;;;;;;;4.27;2.37;;;;;;;20.12;48.80;97386.50;5051971;28;20195;-79
2023/09/10 06:09:23;;;;;;;5.37;3.03;;;;;;;20.38;48.27;97392.38;5066348;28;20189;-79
2023/09/10 06:12:04;;;;;;;5.33;2.57;;;;;;;20.34;48.92;97398.00;5068075;28;20193;-76
2023/09/10 06:14:45;;;;;;;3.87;2.83;;;;;;;20.34;48.27;97383.03;5065846;28;20591;-76
2023/09/10 06:17:28;;;;;;;5.50;2.43;;;;;;;20.70;47.75;97401.19;5065753;28;20193;-76
2023/09/10 06:20:09;;;;;;;5.30;3.30;;;;;;;20.92;46.67;97381.81;5068523;28;20200;-76
2023/09/10 06:22:52;;;;;;;8.43;3.40;;;;;;;21.42;46.17;97386.44;5066241;28;20247;-76
2023/09/10 06:25:35;;;;;;;5.27;2.60;;;;;;;21.74;45.72;97384.53;5068000;28;20188;-77
2023/09/10 06:28:18;;;;;;;8.20;2.83;;;;;;;22.18;43.96;97406.31;5068386;28;20661;-77
2023/09/10 06:30:59;;;;;;;5.20;2.87;;;;;;;21.92;44.88;97398.00;5051273;28;20193;-77
2023/09/10 06:33:41;;;;;;;5.50;3.33;;;;;;;22.34;44.40;97404.03;5066251;28;20539;-77
2023/09/10 06:36:22;;;;;;;4.30;2.90;;;;;;;22.42;43.94;97402.38;5065446;28;20196;-77
2023/09/10 06:39:03;;;;;;;5.23;3.40;;;;;;;22.69;42.38;97414.16;5065965;28;20239;-77
2023/09/10 06:41:44;;;;;;;3.83;3.00;;;;;;;22.90;41.72;97418.38;5034263;28;20230;-77
2023/09/10 06:44:34;;;;;;;4.33;3.10;;;;;;;22.88;42.04;97414.19;5049161;28;20523;-80
2023/09/10 06:47:15;;;;;;;4.90;3.40;;;;;;;22.95;41.24;97425.88;5067755;28;20305;-78
2023/09/10 06:49:56;;;;;;;6.23;2.90;;;;;;;22.85;42.60;97403.91;5065969;28;20724;-79
2023/09/10 06:52:37;;;;;;;8.23;2.70;;;;;;;23.16;42.40;97429.25;5048588;28;20189;-77
2023/09/10 06:55:18;;;;;;;6.17;3.23;;;;;;;22.67;43.83;97401.91;5048579;28;20201;-79
2023/09/10 06:57:59;;;;;;;8.30;3.53;;;;;;;22.80;43.68;97409.59;5067381;28;20288;-79
2023/09/10 07:00:40;;;;;;;4.63;2.63;;;;;;;22.45;43.65;97428.50;5064809;28;20197;-76
2023/09/10 07:03:22;;;;;;;5.70;2.40;;;;;;;21.80;44.23;97376.09;5067686;28;20190;-76
2023/09/10 07:06:04;;;;;;;5.17;2.93;;;;;;;21.98;44.93;97425.66;5067130;28;20276;-80
2023/09/10 07:08:45;;;;;;;7.97;3.00;;;;;;;22.02;45.42;97417.34;5065351;28;20541;-77
2023/09/10 07:11:27;;;;;;;9.53;3.03;;;;;;;22.10;45.40;97421.97;5064733;28;20196;-79
2023/09/10 07:14:08;;;;;;;7.63;2.97;;;;;;;22.25;45.94;97439.13;5064572;28;20228;-77
2023/09/10 07:16:49;;;;;;;11.13;5.30;;;;;;;22.16;46.82;97432.00;5066818;28;20248;-78
2023/09/10 07:19:30;;;;;;;7.20;3.33;;;;;;;22.01;47.31;97428.84;5066412;28;20385;-76
2023/09/10 07:22:11;;;;;;;6.97;3.23;;;;;;;21.91;45.92;97427.97;5066812;28;20330;-77
2023/09/10 07:24:53;;;;;;;6.73;2.70;;;;;;;21.67;46.32;97435.28;5064307;28;20325;-76
2023/09/10 07:27:34;;;;;;;7.93;2.87;;;;;;;21.66;46.01;97434.44;5066338;28;20287;-77
2023/09/10 07:30:16;;;;;;;6.00;4.30;;;;;;;21.94;46.15;97435.66;5064418;28;20243;-77
2023/09/10 07:32:57;;;;;;;7.00;2.57;;;;;;;22.12;45.63;97428.78;5064611;28;20267;-77
2023/09/10 07:35:38;;;;;;;5.00;3.43;;;;;;;21.89;46.08;97416.72;5047108;28;20244;-77
2023/09/10 07:38:20;;;;;;;7.47;3.27;;;;;;;21.90;46.66;97415.78;5066321;28;20231;-77
2023/09/10 07:41:03;;;;;;;7.70;3.00;;;;;;;22.16;46.03;97421.44;5064728;28;20606;-78
2023/09/10 07:43:44;;;;;;;8.30;3.40;;;;;;;22.53;45.57;97418.13;5047219;28;20328;-78
2023/09/10 07:46:25;;;;;;;7.30;3.60;;;;;;;22.77;44.60;97427.53;5066728;28;20894;-78
2023/09/10 07:49:06;;;;;;;5.77;2.97;;;;;;;23.02;44.13;97419.91;5033104;28;20277;-78
2023/09/10 07:51:47;;;;;;;4.67;3.00;;;;;;;23.05;43.30;97414.38;5066176;28;20191;-80
2023/09/10 07:54:28;;;;;;;5.90;3.10;;;;;;;23.31;42.93;97410.19;5049796;28;20201;-80
2023/09/10 07:57:09;;;;;;;6.83;2.90;;;;;;;23.64;41.99;97411.59;5064121;28;20195;-77
2023/09/10 07:59:52;;;;;;;9.77;3.10;;;;;;;23.92;41.15;97418.66;5066425;28;20238;-77
2023/09/10 08:02:37;;;;;;;4.70;2.90;;;;;;;24.21;40.70;97406.16;5066427;28;20190;-79
2023/09/10 08:05:19;;;;;;;8.00;3.37;;;;;;;24.42;40.64;97405.13;5065885;28;20190;-77
2023/09/10 08:08:03;;;;;;;5.57;3.07;;;;;;;24.65;40.02;97416.97;5066397;28;20203;-76
2023/09/10 08:10:45;;;;;;;6.90;3.33;;;;;;;24.88;38.90;97411.16;5063979;28;20630;-79
2023/09/10 08:13:26;;;;;;;9.93;3.27;;;;;;;24.97;39.00;97409.44;5063709;28;20188;-79
2023/09/10 08:16:10;;;;;;;5.30;3.53;;;;;;;25.01;38.43;97398.38;5048715;28;20200;-78
2023/09/10 08:18:51;;;;;;;8.63;2.67;;;;;;;25.29;39.06;97403.59;5063897;28;20596;-79
2023/09/10 08:21:32;;;;;;;5.30;3.37;;;;;;;25.33;38.76;97402.28;5070447;28;20266;-80
2023/09/10 08:24:13;;;;;;;4.23;2.80;;;;;;;25.25;38.24;97391.63;5074970;28;20275;-80
2023/09/10 08:26:54;;;;;;;13.27;3.67;;;;;;;24.92;38.08;97387.81;5070217;28;20193;-77
2023/09/10 08:29:35;;;;;;;8.83;3.23;;;;;;;24.88;38.84;97391.75;5051356;28;20743;-77
2023/09/10 08:32:17;;;;;;;7.83;3.00;;;;;;;24.69;38.76;97402.47;5065068;28;20196;-78
2023/09/10 08:35:00;;;;;;;4.80;2.83;;;;;;;24.57;39.55;97398.34;5066668;28;20655;-79
2023/09/10 08:37:41;;;;;;;6.70;3.70;;;;;;;24.77;38.54;97392.81;5067069;28;20235;-79
2023/09/10 08:40:22;;;;;;;8.27;2.77;;;;;;;24.80;39.01;97405.78;5036555;28;20192;-78
2023/09/10 08:43:10;;;;;;;6.80;2.90;;;;;;;24.91;38.16;97387.03;5068656;28;20837;-77
2023/09/10 08:45:53;;;;;;;6.80;3.33;;;;;;;24.85;38.49;97378.84;5055013;28;20614;-79
2023/09/10 08:48:38;;;;;;;5.83;3.40;;;;;;;24.96;38.52;97405.94;5088932;28;20188;-79
2023/09/10 08:51:19;;;;;;;6.50;2.60;;;;;;;24.84;38.28;97393.06;5054624;28;20206;-79
2023/09/10 08:54:01;;;;;;;5.77;3.10;;;;;;;24.82;37.73;97392.38;5089162;28;20187;-79
2023/09/10 08:56:43;;;;;;;6.07;2.97;;;;;;;24.94;37.23;97391.16;5089063;28;20604;-77
2023/09/10 08:59:25;;;;;;;4.67;3.20;;;;;;;24.75;36.47;97383.38;5070560;28;20216;-78
2023/09/10 09:02:09;;;;;;;7.03;3.53;;;;;;;24.51;37.42;97397.13;5070194;28;20267;-78
2023/09/10 09:04:50;;;;;;;6.00;3.47;;;;;;;24.55;37.46;97397.66;5056888;28;20194;-77
2023/09/10 09:07:36;;;;;;;5.93;3.33;;;;;;;24.41;37.42;97393.69;5088899;28;20187;-79
2023/09/10 09:10:28;;;;;;;5.57;3.03;;;;;;;24.33;37.36;97372.41;5055281;28;20324;-77
2023/09/10 09:13:13;;;;;;;8.20;3.33;;;;;;;24.62;36.81;97378.38;5070500;28;20278;-79
2023/09/10 09:15:57;;;;;;;4.50;3.37;;;;;;;24.88;36.53;97397.06;5072652;28;20203;-76
2023/09/10 09:18:40;;;;;;;6.10;3.20;;;;;;;24.83;36.40;97392.22;5072258;28;20305;-76
2023/09/10 09:21:24;;;;;;;5.83;2.83;;;;;;;24.88;36.42;97371.41;5056873;28;20234;-77
2023/09/10 09:24:06;;;;;;;7.73;3.60;;;;;;;25.03;35.90;97390.28;5088319;28;20184;-76
2023/09/10 09:26:51;;;;;;;4.93;3.13;;;;;;;24.75;35.91;97386.00;5069848;28;20204;-78
2023/09/10 09:29:33;;;;;;;3.63;2.87;;;;;;;24.77;36.36;97368.16;5056123;28;20204;-78
2023/09/10 09:32:15;;;;;;;4.70;2.53;;;;;;;24.74;36.48;97363.13;5071843;28;20253;-78
2023/09/10 09:34:56;;;;;;;3.97;3.00;;;;;;;25.13;36.30;97391.03;5072093;28;20287;-78
2023/09/10 09:37:37;;;;;;;4.30;2.80;;;;;;;24.90;35.96;97376.53;5055523;28;20192;-78
2023/09/10 09:40:21;;;;;;;8.50;2.53;;;;;;;25.09;36.17;97394.97;5069869;28;20326;-78
2023/09/10 09:43:07;;;;;;;3.80;2.83;;;;;;;25.07;35.43;97377.53;5088803;28;20203;-78
2023/09/10 09:45:48;;;;;;;4.97;2.53;;;;;;;25.04;35.83;97382.16;5087714;28;20218;-77
2023/09/10 09:48:30;;;;;;;5.50;2.97;;;;;;;25.27;35.62;97376.38;5087766;28;20191;-77
2023/09/10 09:51:13;;;;;;;5.67;3.10;;;;;;;25.23;35.81;97349.34;5055365;28;20196;-76
2023/09/10 09:53:54;;;;;;;7.73;3.40;;;;;;;25.61;35.45;97377.38;5071696;28;20196;-77
2023/09/10 09:56:41;;;;;;;6.40;3.00;;;;;;;25.68;35.23;97378.41;5087786;28;20299;-79
2023/09/10 09:59:23;;;;;;;9.13;3.10;;;;;;;25.78;35.68;97376.50;5069596;28;20719;-77
2023/09/10 10:02:04;;;;;;;6.17;2.73;;;;;;;25.64;35.12;97375.25;5069880;28;20547;-77
2023/09/10 10:04:45;;;;;;;4.63;2.77;;;;;;;25.70;35.77;97363.16;5069478;28;20203;-77
2023/09/10 10:07:29;;;;;;;4.13;2.70;;;;;;;25.67;35.21;97374.94;5038291;28;20196;-77
2023/09/10 10:10:15;;;;;;;5.93;2.90;;;;;;;25.44;36.15;97359.66;5087735;28;20184;-78
2023/09/10 10:13:00;;;;;;;5.63;2.93;;;;;;;25.62;35.83;97353.34;5088621;28;20261;-77
2023/09/10 10:15:41;;;;;;;5.43;2.80;;;;;;;25.70;35.21;97332.16;5068435;28;20196;-80
2023/09/10 10:18:24;;;;;;;4.60;3.20;;;;;;;25.98;35.26;97363.84;5087433;28;20310;-78
2023/09/10 10:21:05;;;;;;;3.97;2.30;;;;;;;25.60;35.20;97357.13;5069500;28;20181;-80
2023/09/10 10:23:47;;;;;;;5.97;2.97;;;;;;;25.83;35.66;97359.13;5054579;28;20649;-80
2023/09/10 10:26:30;;;;;;;5.60;2.53;;;;;;;25.65;35.25;97365.47;5071686;28;20191;-79
2023/09/10 10:29:12;;;;;;;3.30;2.27;;;;;;;25.52;35.18;97354.41;5069085;28;20231;-79
2023/09/10 10:32:25;;;;;;;6.83;2.57;;;;;;;25.42;36.06;97362.47;5071422;28;20237;-78
2023/09/10 10:35:09;;;;;;;5.53;2.90;;;;;;;25.24;35.59;97359.00;5087802;28;20187;-79
2023/09/10 10:38:03;;;;;;;3.93;1.90;;;;;;;25.15;35.08;97330.75;5068862;28;20231;-77
2023/09/10 10:40:45;;;;;;;4.97;2.70;;;;;;;25.30;35.45;97352.25;5086648;28;20628;-77
2023/09/10 10:43:29;;;;;;;5.53;2.40;;;;;;;25.01;35.33;97340.06;5069424;28;20748;-78
2023/09/10 10:46:11;;;;;;;7.50;2.60;;;;;;;25.04;35.29;97354.81;5069106;28;20634;-78
2023/09/10 10:48:52;;;;;;;6.70;3.27;;;;;;;25.19;35.61;97337.41;5068677;28;20188;-77
2023/09/10 10:51:46;;;;;;;5.97;2.67;;;;;;;25.40;34.75;97303.44;5087047;28;20196;-79
2023/09/10 10:54:28;;;;;;;4.93;2.90;;;;;;;25.55;34.56;97323.13;5071105;28;20257;-79
2023/09/10 10:57:10;;;;;;;5.63;2.53;;;;;;;25.99;34.26;97336.31;5087059;28;20207;-78
2023/09/10 10:59:51;;;;;;;4.17;2.13;;;;;;;25.78;33.60;97336.72;5070567;28;20219;-79
2023/09/10 11:02:32;;;;;;;4.20;2.80;;;;;;;25.91;34.03;97328.28;5068600;28;20192;-80
2023/09/10 11:05:13;;;;;;;5.30;2.50;;;;;;;25.88;33.74;97320.66;5052153;28;20197;-78
2023/09/10 11:08:35;;;;;;;6.30;2.50;;;;;;;25.77;34.17;97322.59;5053971;28;20632;-78
2023/09/10 11:11:34;;;;;;;4.20;2.73;;;;;;;25.67;34.34;97327.19;5086176;28;20299;-77
2023/09/10 11:14:15;;;;;;;8.33;2.60;;;;;;;25.55;34.76;97307.22;5038380;28;20192;-79
2023/09/10 11:17:22;;;;;;;6.17;2.60;;;;;;;25.49;35.08;97315.75;5086916;28;20300;-79
2023/09/10 11:20:04;;;;;;;4.47;2.10;;;;;;;25.51;34.70;97310.34;5070174;28;20204;-79
2023/09/10 11:23:11;;;;;;;4.90;2.40;;;;;;;25.54;34.93;97310.00;5087093;28;20698;-78
2023/09/10 11:25:52;;;;;;;7.00;2.47;;;;;;;25.36;34.75;97317.97;5053614;28;20187;-79
2023/09/10 11:28:52;;;;;;;3.83;2.10;;;;;;;25.51;34.61;97303.19;5070583;28;20184;-79
2023/09/10 11:31:35;;;;;;;6.00;2.53;;;;;;;25.72;33.88;97305.47;5071788;28;20852;-79
2023/09/10 11:34:27;;;;;;;5.93;2.13;;;;;;;25.70;33.82;97316.25;5068871;28;20192;-79
2023/09/10 11:37:09;;;;;;;10.57;2.63;;;;;;;25.76;34.35;97286.44;5068343;28;20199;-80
2023/09/10 11:39:50;;;;;;;5.53;2.40;;;;;;;25.62;34.19;97287.00;5069221;28;20872;-78
2023/09/10 11:42:31;;;;;;;4.03;2.17;;;;;;;25.57;34.89;97294.63;5071497;28;20253;-78
2023/09/10 11:45:13;;;;;;;6.20;2.40;;;;;;;25.68;34.81;97297.00;5070416;28;20251;-79
2023/09/10 11:47:54;;;;;;;6.93;2.63;;;;;;;25.62;34.11;97302.94;5088180;28;20191;-82
2023/09/10 11:50:35;;;;;;;5.80;2.37;;;;;;;25.71;34.43;97301.16;5060783;28;20253;-77
2023/09/10 11:53:16;;;;;;;7.17;2.87;;;;;;;25.60;34.53;97289.00;5086371;28;20196;-79
2023/09/10 11:55:58;;;;;;;4.60;2.40;;;;;;;25.68;34.46;97293.50;5070894;28;20220;-81
2023/09/10 11:58:43;;;;;;;3.60;2.30;;;;;;;25.66;34.42;97288.38;5050761;28;20252;-82
2023/09/10 12:01:25;;;;;;;4.47;2.13;;;;;;;25.68;33.69;97297.00;5051579;28;20199;-79
2023/09/10 12:04:16;;;;;;;4.77;2.37;;;;;;;25.72;34.64;97298.34;5068562;28;20196;-79
2023/09/10 12:07:01;;;;;;;5.27;2.53;;;;;;;25.67;34.49;97290.03;5069564;28;20670;-79
2023/09/10 12:09:42;;;;;;;4.67;2.60;;;;;;;25.44;35.45;97288.91;5086271;28;20590;-79
2023/09/10 12:12:29;;;;;;;6.33;2.57;;;;;;;25.47;35.14;97293.88;5067283;28;20192;-78
2023/09/10 12:15:10;;;;;;;3.83;2.30;;;;;;;25.73;34.53;97304.50;5067542;28;20245;-79
2023/09/10 12:17:51;;;;;;;6.80;2.20;;;;;;;25.80;34.65;97274.50;5055678;28;20623;-78
2023/09/10 12:20:34;;;;;;;9.47;2.83;;;;;;;25.99;34.35;97283.22;5066936;28;20225;-79
2023/09/10 12:23:15;;;;;;;5.80;2.80;;;;;;;26.12;34.41;97294.25;5052929;28;20666;-79
2023/09/10 12:25:57;;;;;;;4.10;2.20;;;;;;;26.37;33.51;97277.41;5069470;28;20272;-79